sensor_id;sensor_type;location;lat;lon;timestamp;temperature;humidity
9790;DHT22;4934;50.852;8.098;2022-11-20T00:00:46;-0.80;99.90
9790;DHT22;4934;50.852;8.098;2022-11-20T00:03:12;-0.90;99.90
9790;DHT22;4934;50.852;8.098;2022-11-20T00:05:38;-0.80;99.90
9790;DHT22;4934;50.852;8.098;2022-11-20T00:08:04;-0.80;99.90
9790;DHT22;4934;50.852;8.098;2022-11-20T00:10:29;-0.90;99.90
9790;DHT22;4934;50.852;8.098;2022-11-20T00:12:55;-0.90;99.90
9790;DHT22;4934;50.852;8.098;2022-11-20T00:15:20;-1.00;99.90
9790;DHT22;4934;50.852;8.098;2022-11-20T00:17:46;-1.00;99.90
9790;DHT22;4934;50.852;8.098;2022-11-20T00:20:12;-1.00;99.90
9790;DHT22;4934;50.852;8.098;2022-11-20T00:22:38;-0.90;99.90
9790;DHT22;4934;50.852;8.098;2022-11-20T00:25:04;-0.90;99.90
9790;DHT22;4934;50.852;8.098;2022-11-20T00:27:29;-0.90;99.90
9790;DHT22;4934;50.852;8.098;2022-11-20T00:29:55;-0.80;99.90
9790;DHT22;4934;50.852;8.098;2022-11-20T00:32:21;-0.80;99.90
9790;DHT22;4934;50.852;8.098;2022-11-20T00:34:46;-0.70;99.90
9790;DHT22;4934;50.852;8.098;2022-11-20T00:37:12;-0.80;99.90
9790;DHT22;4934;50.852;8.098;2022-11-20T00:39:37;-0.90;99.90
9790;DHT22;4934;50.852;8.098;2022-11-20T00:42:03;-0.80;99.90
9790;DHT22;4934;50.852;8.098;2022-11-20T00:44:29;-0.80;99.90
9790;DHT22;4934;50.852;8.098;2022-11-20T00:46:54;-0.70;99.90
9790;DHT22;4934;50.852;8.098;2022-11-20T00:49:20;-0.70;99.90
9790;DHT22;4934;50.852;8.098;2022-11-20T00:51:45;-0.80;99.90
9790;DHT22;4934;50.852;8.098;2022-11-20T00:54:11;-0.80;99.90
9790;DHT22;4934;50.852;8.098;2022-11-20T00:56:36;-0.70;99.90
9790;DHT22;4934;50.852;8.098;2022-11-20T00:59:02;-0.70;99.90
9790;DHT22;4934;50.852;8.098;2022-11-20T01:01:27;-0.60;99.90
9790;DHT22;4934;50.852;8.098;2022-11-20T01:03:56;-0.60;99.90
9790;DHT22;4934;50.852;8.098;2022-11-20T01:06:22;-0.70;99.90
9790;DHT22;4934;50.852;8.098;2022-11-20T01:08:50;-0.70;99.90
9790;DHT22;4934;50.852;8.098;2022-11-20T01:11:19;-0.60;99.90
9790;DHT22;4934;50.852;8.098;2022-11-20T01:13:47;-0.60;99.90
9790;DHT22;4934;50.852;8.098;2022-11-20T01:16:25;-0.60;99.90
9790;DHT22;4934;50.852;8.098;2022-11-20T01:18:52;-0.60;99.90
9790;DHT22;4934;50.852;8.098;2022-11-20T01:21:23;-0.60;99.90
9790;DHT22;4934;50.852;8.098;2022-11-20T01:23:50;-0.50;99.90
9790;DHT22;4934;50.852;8.098;2022-11-20T01:26:22;-0.50;99.90
9790;DHT22;4934;50.852;8.098;2022-11-20T01:28:48;-0.60;99.90
9790;DHT22;4934;50.852;8.098;2022-11-20T01:31:22;-0.60;99.90
9790;DHT22;4934;50.852;8.098;2022-11-20T01:33:51;-0.60;99.90
9790;DHT22;4934;50.852;8.098;2022-11-20T01:36:19;-0.60;99.90
9790;DHT22;4934;50.852;8.098;2022-11-20T01:38:45;-0.60;99.90
9790;DHT22;4934;50.852;8.098;2022-11-20T01:41:12;-0.60;99.90
9790;DHT22;4934;50.852;8.098;2022-11-20T01:43:58;-0.50;99.90
9790;DHT22;4934;50.852;8.098;2022-11-20T01:46:24;-0.40;99.90
9790;DHT22;4934;50.852;8.098;2022-11-20T01:49:05;-0.40;99.90
9790;DHT22;4934;50.852;8.098;2022-11-20T01:51:45;-0.40;99.90
9790;DHT22;4934;50.852;8.098;2022-11-20T01:54:19;-0.40;99.90
9790;DHT22;4934;50.852;8.098;2022-11-20T01:56:50;-0.40;99.90
9790;DHT22;4934;50.852;8.098;2022-11-20T01:59:17;-0.40;99.90
9790;DHT22;4934;50.852;8.098;2022-11-20T02:01:44;-0.40;99.90
9790;DHT22;4934;50.852;8.098;2022-11-20T02:04:10;-0.30;99.90
9790;DHT22;4934;50.852;8.098;2022-11-20T02:06:40;-0.30;99.90
9790;DHT22;4934;50.852;8.098;2022-11-20T02:09:07;-0.20;99.90
9790;DHT22;4934;50.852;8.098;2022-11-20T02:11:33;-0.20;99.90
9790;DHT22;4934;50.852;8.098;2022-11-20T02:13:59;-0.20;99.90
9790;DHT22;4934;50.852;8.098;2022-11-20T02:16:27;-0.20;99.90
9790;DHT22;4934;50.852;8.098;2022-11-20T02:18:55;-0.20;99.90
9790;DHT22;4934;50.852;8.098;2022-11-20T02:21:48;-0.10;99.90
9790;DHT22;4934;50.852;8.098;2022-11-20T02:24:16;-0.10;99.90
9790;DHT22;4934;50.852;8.098;2022-11-20T02:27:02;0.00;99.90
9790;DHT22;4934;50.852;8.098;2022-11-20T02:29:51;-0.10;99.90
9790;DHT22;4934;50.852;8.098;2022-11-20T02:32:26;-0.20;99.90
9790;DHT22;4934;50.852;8.098;2022-11-20T02:34:52;-0.10;99.90
9790;DHT22;4934;50.852;8.098;2022-11-20T02:37:19;-0.10;99.90
9790;DHT22;4934;50.852;8.098;2022-11-20T02:39:52;-0.10;99.90
9790;DHT22;4934;50.852;8.098;2022-11-20T02:42:18;-0.10;99.90
9790;DHT22;4934;50.852;8.098;2022-11-20T02:44:44;-0.10;99.90
9790;DHT22;4934;50.852;8.098;2022-11-20T02:47:09;-0.10;99.90
9790;DHT22;4934;50.852;8.098;2022-11-20T02:49:35;0.00;99.90
9790;DHT22;4934;50.852;8.098;2022-11-20T02:52:01;0.00;99.90
9790;DHT22;4934;50.852;8.098;2022-11-20T02:54:26;0.00;99.90
9790;DHT22;4934;50.852;8.098;2022-11-20T02:56:52;0.00;99.90
9790;DHT22;4934;50.852;8.098;2022-11-20T02:59:18;0.00;99.90
9790;DHT22;4934;50.852;8.098;2022-11-20T03:01:43;0.00;99.90
9790;DHT22;4934;50.852;8.098;2022-11-20T03:04:09;0.00;99.90
9790;DHT22;4934;50.852;8.098;2022-11-20T03:06:34;0.00;99.90
9790;DHT22;4934;50.852;8.098;2022-11-20T03:09:00;0.00;99.90
9790;DHT22;4934;50.852;8.098;2022-11-20T03:11:26;0.10;99.90
9790;DHT22;4934;50.852;8.098;2022-11-20T03:13:51;0.10;99.90
9790;DHT22;4934;50.852;8.098;2022-11-20T03:16:19;0.00;99.90
9790;DHT22;4934;50.852;8.098;2022-11-20T03:18:46;0.00;99.90
9790;DHT22;4934;50.852;8.098;2022-11-20T03:21:12;0.00;99.90
9790;DHT22;4934;50.852;8.098;2022-11-20T03:23:39;0.00;99.90
9790;DHT22;4934;50.852;8.098;2022-11-20T03:26:31;0.00;99.90
9790;DHT22;4934;50.852;8.098;2022-11-20T03:28:59;0.00;99.90
9790;DHT22;4934;50.852;8.098;2022-11-20T03:31:32;-0.10;99.90
9790;DHT22;4934;50.852;8.098;2022-11-20T03:33:58;0.00;99.90
9790;DHT22;4934;50.852;8.098;2022-11-20T03:36:25;0.00;99.90
9790;DHT22;4934;50.852;8.098;2022-11-20T03:38:53;0.00;99.90
9790;DHT22;4934;50.852;8.098;2022-11-20T03:41:21;0.00;99.90
9790;DHT22;4934;50.852;8.098;2022-11-20T03:43:52;0.00;99.90
9790;DHT22;4934;50.852;8.098;2022-11-20T03:46:19;0.00;99.90
9790;DHT22;4934;50.852;8.098;2022-11-20T03:48:45;-0.10;99.90
9790;DHT22;4934;50.852;8.098;2022-11-20T03:51:19;0.00;99.90
9790;DHT22;4934;50.852;8.098;2022-11-20T03:53:46;0.10;99.90
9790;DHT22;4934;50.852;8.098;2022-11-20T03:56:13;0.10;99.90
9790;DHT22;4934;50.852;8.098;2022-11-20T03:58:40;0.10;99.90
9790;DHT22;4934;50.852;8.098;2022-11-20T04:01:15;0.00;99.90
9790;DHT22;4934;50.852;8.098;2022-11-20T04:03:43;-0.20;99.90
9790;DHT22;4934;50.852;8.098;2022-11-20T04:06:14;-0.10;99.90
9790;DHT22;4934;50.852;8.098;2022-11-20T04:08:41;0.00;99.90
9790;DHT22;4934;50.852;8.098;2022-11-20T04:11:12;0.00;99.90
9790;DHT22;4934;50.852;8.098;2022-11-20T04:13:38;0.00;99.90
9790;DHT22;4934;50.852;8.098;2022-11-20T04:16:05;0.10;99.90
9790;DHT22;4934;50.852;8.098;2022-11-20T04:18:31;0.10;99.90
9790;DHT22;4934;50.852;8.098;2022-11-20T04:20:57;0.10;99.90
9790;DHT22;4934;50.852;8.098;2022-11-20T04:23:23;0.10;99.90
9790;DHT22;4934;50.852;8.098;2022-11-20T04:25:48;0.10;99.90
9790;DHT22;4934;50.852;8.098;2022-11-20T04:28:14;0.00;99.90
9790;DHT22;4934;50.852;8.098;2022-11-20T04:30:40;0.00;99.90
9790;DHT22;4934;50.852;8.098;2022-11-20T04:33:05;0.10;99.90
9790;DHT22;4934;50.852;8.098;2022-11-20T04:35:34;0.10;99.90
9790;DHT22;4934;50.852;8.098;2022-11-20T04:37:59;0.10;99.90
9790;DHT22;4934;50.852;8.098;2022-11-20T04:40:25;0.10;99.90
9790;DHT22;4934;50.852;8.098;2022-11-20T04:42:51;0.10;99.90
9790;DHT22;4934;50.852;8.098;2022-11-20T04:45:17;0.10;99.90
9790;DHT22;4934;50.852;8.098;2022-11-20T04:47:42;0.20;99.90
9790;DHT22;4934;50.852;8.098;2022-11-20T04:50:08;0.20;99.90
9790;DHT22;4934;50.852;8.098;2022-11-20T04:52:34;0.10;99.90
9790;DHT22;4934;50.852;8.098;2022-11-20T04:54:59;0.10;99.90
9790;DHT22;4934;50.852;8.098;2022-11-20T04:57:25;0.10;99.90
9790;DHT22;4934;50.852;8.098;2022-11-20T04:59:50;0.10;99.90
9790;DHT22;4934;50.852;8.098;2022-11-20T05:02:16;0.10;99.90
9790;DHT22;4934;50.852;8.098;2022-11-20T05:04:42;0.10;99.90
9790;DHT22;4934;50.852;8.098;2022-11-20T05:07:07;0.10;99.90
9790;DHT22;4934;50.852;8.098;2022-11-20T05:09:33;0.20;99.90
9790;DHT22;4934;50.852;8.098;2022-11-20T05:11:58;0.20;99.90
9790;DHT22;4934;50.852;8.098;2022-11-20T05:14:24;0.20;99.90
9790;DHT22;4934;50.852;8.098;2022-11-20T05:16:50;0.30;99.90
9790;DHT22;4934;50.852;8.098;2022-11-20T05:19:15;0.30;99.90
9790;DHT22;4934;50.852;8.098;2022-11-20T05:21:41;0.30;99.90
9790;DHT22;4934;50.852;8.098;2022-11-20T05:24:06;0.30;99.90
9790;DHT22;4934;50.852;8.098;2022-11-20T05:26:32;0.30;99.90
9790;DHT22;4934;50.852;8.098;2022-11-20T05:28:58;0.30;99.90
9790;DHT22;4934;50.852;8.098;2022-11-20T05:31:24;0.20;99.90
9790;DHT22;4934;50.852;8.098;2022-11-20T05:33:50;0.20;99.90
9790;DHT22;4934;50.852;8.098;2022-11-20T05:36:17;0.30;99.90
9790;DHT22;4934;50.852;8.098;2022-11-20T05:38:43;0.30;99.90
9790;DHT22;4934;50.852;8.098;2022-11-20T05:41:14;0.20;99.90
9790;DHT22;4934;50.852;8.098;2022-11-20T05:43:42;0.20;99.90
9790;DHT22;4934;50.852;8.098;2022-11-20T05:46:10;0.20;99.90
9790;DHT22;4934;50.852;8.098;2022-11-20T05:48:37;0.20;99.90
9790;DHT22;4934;50.852;8.098;2022-11-20T05:51:05;0.10;99.90
9790;DHT22;4934;50.852;8.098;2022-11-20T05:53:32;0.00;99.90
9790;DHT22;4934;50.852;8.098;2022-11-20T05:56:10;0.00;99.90
9790;DHT22;4934;50.852;8.098;2022-11-20T05:58:36;0.10;99.90
9790;DHT22;4934;50.852;8.098;2022-11-20T06:01:08;0.10;99.90
9790;DHT22;4934;50.852;8.098;2022-11-20T06:03:34;0.00;99.90
9790;DHT22;4934;50.852;8.098;2022-11-20T06:06:00;0.00;99.90
9790;DHT22;4934;50.852;8.098;2022-11-20T06:08:26;0.10;99.90
9790;DHT22;4934;50.852;8.098;2022-11-20T06:10:51;0.10;99.90
9790;DHT22;4934;50.852;8.098;2022-11-20T06:13:17;0.20;99.90
9790;DHT22;4934;50.852;8.098;2022-11-20T06:15:51;0.10;99.90
9790;DHT22;4934;50.852;8.098;2022-11-20T06:18:17;0.00;99.90
9790;DHT22;4934;50.852;8.098;2022-11-20T06:20:42;0.00;99.90
9790;DHT22;4934;50.852;8.098;2022-11-20T06:23:08;0.00;99.90
9790;DHT22;4934;50.852;8.098;2022-11-20T06:25:41;0.00;99.90
9790;DHT22;4934;50.852;8.098;2022-11-20T06:28:07;0.10;99.90
9790;DHT22;4934;50.852;8.098;2022-11-20T06:30:32;0.10;99.90
9790;DHT22;4934;50.852;8.098;2022-11-20T06:32:58;0.10;99.90
9790;DHT22;4934;50.852;8.098;2022-11-20T06:35:24;0.20;99.90
9790;DHT22;4934;50.852;8.098;2022-11-20T06:37:49;0.20;99.90
9790;DHT22;4934;50.852;8.098;2022-11-20T06:40:15;0.20;99.90
9790;DHT22;4934;50.852;8.098;2022-11-20T06:42:40;0.20;99.90
9790;DHT22;4934;50.852;8.098;2022-11-20T06:45:06;0.20;99.90
9790;DHT22;4934;50.852;8.098;2022-11-20T06:47:32;0.20;99.90
9790;DHT22;4934;50.852;8.098;2022-11-20T06:49:58;0.10;99.90
9790;DHT22;4934;50.852;8.098;2022-11-20T06:52:24;0.00;99.90
9790;DHT22;4934;50.852;8.098;2022-11-20T06:54:49;0.00;99.90
9790;DHT22;4934;50.852;8.098;2022-11-20T06:57:15;-0.20;99.90
9790;DHT22;4934;50.852;8.098;2022-11-20T06:59:41;-0.10;99.90
9790;DHT22;4934;50.852;8.098;2022-11-20T07:02:10;0.00;99.90
9790;DHT22;4934;50.852;8.098;2022-11-20T07:04:36;0.00;99.90
9790;DHT22;4934;50.852;8.098;2022-11-20T07:07:01;0.00;99.90
9790;DHT22;4934;50.852;8.098;2022-11-20T07:09:27;0.10;99.90
9790;DHT22;4934;50.852;8.098;2022-11-20T07:11:52;0.10;99.90
9790;DHT22;4934;50.852;8.098;2022-11-20T07:14:18;0.10;99.90
9790;DHT22;4934;50.852;8.098;2022-11-20T07:16:43;0.10;99.90
9790;DHT22;4934;50.852;8.098;2022-11-20T07:19:09;0.20;99.90
9790;DHT22;4934;50.852;8.098;2022-11-20T07:21:35;0.20;99.90
9790;DHT22;4934;50.852;8.098;2022-11-20T07:24:00;0.20;99.90
9790;DHT22;4934;50.852;8.098;2022-11-20T07:26:26;0.30;99.90
9790;DHT22;4934;50.852;8.098;2022-11-20T07:28:51;0.10;99.90
9790;DHT22;4934;50.852;8.098;2022-11-20T07:31:17;0.20;99.90
9790;DHT22;4934;50.852;8.098;2022-11-20T07:33:42;0.20;99.90
9790;DHT22;4934;50.852;8.098;2022-11-20T07:36:08;0.30;99.90
9790;DHT22;4934;50.852;8.098;2022-11-20T07:38:33;0.40;99.90
9790;DHT22;4934;50.852;8.098;2022-11-20T07:40:59;0.40;99.90
9790;DHT22;4934;50.852;8.098;2022-11-20T07:43:27;0.40;99.90
9790;DHT22;4934;50.852;8.098;2022-11-20T07:45:55;0.50;99.90
9790;DHT22;4934;50.852;8.098;2022-11-20T07:48:21;0.50;99.90
9790;DHT22;4934;50.852;8.098;2022-11-20T07:50:47;0.60;99.90
9790;DHT22;4934;50.852;8.098;2022-11-20T07:53:13;0.50;99.90
9790;DHT22;4934;50.852;8.098;2022-11-20T07:55:39;0.60;99.90
9790;DHT22;4934;50.852;8.098;2022-11-20T07:58:05;0.60;99.90
9790;DHT22;4934;50.852;8.098;2022-11-20T08:00:30;0.70;99.90
9790;DHT22;4934;50.852;8.098;2022-11-20T08:02:56;0.70;99.90
9790;DHT22;4934;50.852;8.098;2022-11-20T08:05:22;0.80;99.90
9790;DHT22;4934;50.852;8.098;2022-11-20T08:07:47;0.80;99.90
9790;DHT22;4934;50.852;8.098;2022-11-20T08:10:14;0.80;99.90
9790;DHT22;4934;50.852;8.098;2022-11-20T08:12:59;0.80;99.90
9790;DHT22;4934;50.852;8.098;2022-11-20T08:15:50;0.90;99.90
9790;DHT22;4934;50.852;8.098;2022-11-20T08:18:17;0.70;99.90
9790;DHT22;4934;50.852;8.098;2022-11-20T08:20:44;0.70;99.90
9790;DHT22;4934;50.852;8.098;2022-11-20T08:23:09;0.90;99.90
9790;DHT22;4934;50.852;8.098;2022-11-20T08:25:37;1.00;99.90
9790;DHT22;4934;50.852;8.098;2022-11-20T08:28:08;1.00;99.90
9790;DHT22;4934;50.852;8.098;2022-11-20T08:30:34;0.90;99.90
9790;DHT22;4934;50.852;8.098;2022-11-20T08:33:02;1.10;99.90
9790;DHT22;4934;50.852;8.098;2022-11-20T08:35:28;1.10;99.90
9790;DHT22;4934;50.852;8.098;2022-11-20T08:37:54;1.20;99.90
9790;DHT22;4934;50.852;8.098;2022-11-20T08:40:19;1.30;99.90
9790;DHT22;4934;50.852;8.098;2022-11-20T08:42:49;1.40;99.90
9790;DHT22;4934;50.852;8.098;2022-11-20T08:45:15;1.50;99.90
9790;DHT22;4934;50.852;8.098;2022-11-20T08:47:41;1.60;99.90
9790;DHT22;4934;50.852;8.098;2022-11-20T08:50:11;1.60;99.90
9790;DHT22;4934;50.852;8.098;2022-11-20T08:52:37;1.50;99.90
9790;DHT22;4934;50.852;8.098;2022-11-20T08:55:04;1.50;99.90
9790;DHT22;4934;50.852;8.098;2022-11-20T08:57:36;1.60;99.90
9790;DHT22;4934;50.852;8.098;2022-11-20T09:00:04;1.70;99.90
9790;DHT22;4934;50.852;8.098;2022-11-20T09:02:31;1.70;99.90
9790;DHT22;4934;50.852;8.098;2022-11-20T09:04:58;1.70;99.90
9790;DHT22;4934;50.852;8.098;2022-11-20T09:07:23;1.90;99.90
9790;DHT22;4934;50.852;8.098;2022-11-20T09:09:49;1.90;99.90
9790;DHT22;4934;50.852;8.098;2022-11-20T09:12:14;2.00;99.90
9790;DHT22;4934;50.852;8.098;2022-11-20T09:14:40;1.90;99.90
9790;DHT22;4934;50.852;8.098;2022-11-20T09:17:06;1.80;99.90
9790;DHT22;4934;50.852;8.098;2022-11-20T09:19:33;1.80;99.90
9790;DHT22;4934;50.852;8.098;2022-11-20T09:21:58;1.90;99.90
9790;DHT22;4934;50.852;8.098;2022-11-20T09:24:26;2.00;99.90
9790;DHT22;4934;50.852;8.098;2022-11-20T09:26:51;2.10;99.90
9790;DHT22;4934;50.852;8.098;2022-11-20T09:29:17;2.30;99.90
9790;DHT22;4934;50.852;8.098;2022-11-20T09:31:42;2.30;99.90
9790;DHT22;4934;50.852;8.098;2022-11-20T09:34:08;2.30;99.90
9790;DHT22;4934;50.852;8.098;2022-11-20T09:36:35;2.40;99.90
9790;DHT22;4934;50.852;8.098;2022-11-20T09:39:01;2.20;99.90
9790;DHT22;4934;50.852;8.098;2022-11-20T09:47:15;2.50;99.90
9790;DHT22;4934;50.852;8.098;2022-11-20T09:52:51;2.60;99.90
9790;DHT22;4934;50.852;8.098;2022-11-20T09:55:20;2.60;99.90
9790;DHT22;4934;50.852;8.098;2022-11-20T09:57:51;2.50;99.90
9790;DHT22;4934;50.852;8.098;2022-11-20T10:00:17;2.60;99.90
9790;DHT22;4934;50.852;8.098;2022-11-20T10:08:37;2.80;99.90
9790;DHT22;4934;50.852;8.098;2022-11-20T10:16:58;2.90;99.90
9790;DHT22;4934;50.852;8.098;2022-11-20T10:19:52;2.80;99.90
9790;DHT22;4934;50.852;8.098;2022-11-20T10:22:44;2.70;99.90
9790;DHT22;4934;50.852;8.098;2022-11-20T10:25:39;2.70;99.90
9790;DHT22;4934;50.852;8.098;2022-11-20T10:31:10;3.00;99.90
9790;DHT22;4934;50.852;8.098;2022-11-20T10:33:39;3.10;99.90
9790;DHT22;4934;50.852;8.098;2022-11-20T10:36:16;3.20;99.90
9790;DHT22;4934;50.852;8.098;2022-11-20T10:38:50;3.40;99.90
9790;DHT22;4934;50.852;8.098;2022-11-20T10:41:23;3.10;99.90
9790;DHT22;4934;50.852;8.098;2022-11-20T10:46:25;3.20;99.90
9790;DHT22;4934;50.852;8.098;2022-11-20T10:48:51;3.40;99.90
9790;DHT22;4934;50.852;8.098;2022-11-20T10:56:50;3.50;99.90
9790;DHT22;4934;50.852;8.098;2022-11-20T10:59:38;3.70;99.90
9790;DHT22;4934;50.852;8.098;2022-11-20T11:02:24;3.80;99.90
9790;DHT22;4934;50.852;8.098;2022-11-20T11:04:53;3.70;99.90
9790;DHT22;4934;50.852;8.098;2022-11-20T11:07:27;3.80;99.90
9790;DHT22;4934;50.852;8.098;2022-11-20T11:09:56;4.00;99.90
9790;DHT22;4934;50.852;8.098;2022-11-20T11:12:24;4.20;99.90
9790;DHT22;4934;50.852;8.098;2022-11-20T11:14:56;4.30;99.90
9790;DHT22;4934;50.852;8.098;2022-11-20T11:17:32;4.30;99.90
9790;DHT22;4934;50.852;8.098;2022-11-20T11:20:16;4.40;99.90
9790;DHT22;4934;50.852;8.098;2022-11-20T11:27:54;4.50;99.90
9790;DHT22;4934;50.852;8.098;2022-11-20T11:30:22;4.50;99.90
9790;DHT22;4934;50.852;8.098;2022-11-20T11:32:48;4.40;99.90
9790;DHT22;4934;50.852;8.098;2022-11-20T11:35:25;4.30;99.90
9790;DHT22;4934;50.852;8.098;2022-11-20T11:37:54;4.40;99.90
9790;DHT22;4934;50.852;8.098;2022-11-20T11:40:22;4.40;99.90
9790;DHT22;4934;50.852;8.098;2022-11-20T11:42:54;4.60;99.90
9790;DHT22;4934;50.852;8.098;2022-11-20T11:45:22;4.70;99.90
9790;DHT22;4934;50.852;8.098;2022-11-20T11:47:48;4.70;99.90
9790;DHT22;4934;50.852;8.098;2022-11-20T11:50:28;4.90;99.90
9790;DHT22;4934;50.852;8.098;2022-11-20T11:53:08;5.00;99.90
9790;DHT22;4934;50.852;8.098;2022-11-20T11:55:56;4.90;99.90
9790;DHT22;4934;50.852;8.098;2022-11-20T12:03:55;4.60;99.90
9790;DHT22;4934;50.852;8.098;2022-11-20T12:06:25;4.60;99.90
9790;DHT22;4934;50.852;8.098;2022-11-20T12:08:57;4.60;99.90
9790;DHT22;4934;50.852;8.098;2022-11-20T12:11:32;4.70;99.90
9790;DHT22;4934;50.852;8.098;2022-11-20T12:14:09;4.80;99.90
9790;DHT22;4934;50.852;8.098;2022-11-20T12:16:37;4.90;99.90
9790;DHT22;4934;50.852;8.098;2022-11-20T12:19:08;4.80;99.90
9790;DHT22;4934;50.852;8.098;2022-11-20T12:27:28;4.70;99.90
9790;DHT22;4934;50.852;8.098;2022-11-20T12:30:17;4.60;99.90
9790;DHT22;4934;50.852;8.098;2022-11-20T12:35:31;4.40;99.90
9790;DHT22;4934;50.852;8.098;2022-11-20T12:41:47;4.40;99.90
9790;DHT22;4934;50.852;8.098;2022-11-20T12:45:06;4.30;99.90
9790;DHT22;4934;50.852;8.098;2022-11-20T12:48:13;4.20;99.90
9790;DHT22;4934;50.852;8.098;2022-11-20T12:51:14;4.20;99.90
9790;DHT22;4934;50.852;8.098;2022-11-20T12:59:55;4.50;99.90
9790;DHT22;4934;50.852;8.098;2022-11-20T13:07:33;4.30;99.90
9790;DHT22;4934;50.852;8.098;2022-11-20T13:10:01;4.30;99.90
9790;DHT22;4934;50.852;8.098;2022-11-20T13:12:46;4.20;99.90
9790;DHT22;4934;50.852;8.098;2022-11-20T13:15:35;4.10;99.90
9790;DHT22;4934;50.852;8.098;2022-11-20T13:18:07;4.10;99.90
9790;DHT22;4934;50.852;8.098;2022-11-20T13:20:35;4.10;99.90
9790;DHT22;4934;50.852;8.098;2022-11-20T13:23:01;4.00;99.90
9790;DHT22;4934;50.852;8.098;2022-11-20T13:25:31;4.00;99.90
9790;DHT22;4934;50.852;8.098;2022-11-20T13:28:00;4.00;99.90
9790;DHT22;4934;50.852;8.098;2022-11-20T13:30:29;4.00;99.90
9790;DHT22;4934;50.852;8.098;2022-11-20T13:33:22;4.00;99.90
9790;DHT22;4934;50.852;8.098;2022-11-20T13:36:00;4.00;99.90
9790;DHT22;4934;50.852;8.098;2022-11-20T13:38:26;4.00;99.90
9790;DHT22;4934;50.852;8.098;2022-11-20T13:40:59;4.00;99.90
9790;DHT22;4934;50.852;8.098;2022-11-20T13:43:47;4.00;99.90
9790;DHT22;4934;50.852;8.098;2022-11-20T13:46:13;4.00;99.90
9790;DHT22;4934;50.852;8.098;2022-11-20T13:48:45;4.00;99.90
9790;DHT22;4934;50.852;8.098;2022-11-20T13:51:33;3.90;99.90
9790;DHT22;4934;50.852;8.098;2022-11-20T13:54:28;3.90;99.90
9790;DHT22;4934;50.852;8.098;2022-11-20T14:00:20;3.80;99.90
9790;DHT22;4934;50.852;8.098;2022-11-20T14:05:23;3.70;99.90
9790;DHT22;4934;50.852;8.098;2022-11-20T14:07:50;3.70;99.90
9790;DHT22;4934;50.852;8.098;2022-11-20T14:10:24;3.60;99.90
9790;DHT22;4934;50.852;8.098;2022-11-20T14:12:50;3.50;99.90
9790;DHT22;4934;50.852;8.098;2022-11-20T14:15:34;3.50;99.90
9790;DHT22;4934;50.852;8.098;2022-11-20T14:18:10;3.50;99.90
9790;DHT22;4934;50.852;8.098;2022-11-20T14:20:38;3.50;99.90
9790;DHT22;4934;50.852;8.098;2022-11-20T14:23:04;3.50;99.90
9790;DHT22;4934;50.852;8.098;2022-11-20T14:25:30;3.60;99.90
9790;DHT22;4934;50.852;8.098;2022-11-20T14:28:02;3.40;99.90
9790;DHT22;4934;50.852;8.098;2022-11-20T14:30:43;3.40;99.90
9790;DHT22;4934;50.852;8.098;2022-11-20T14:33:12;3.30;99.90
9790;DHT22;4934;50.852;8.098;2022-11-20T14:35:47;3.40;99.90
9790;DHT22;4934;50.852;8.098;2022-11-20T14:38:15;3.40;99.90
9790;DHT22;4934;50.852;8.098;2022-11-20T14:40:42;3.40;99.90
9790;DHT22;4934;50.852;8.098;2022-11-20T14:43:21;3.50;99.90
9790;DHT22;4934;50.852;8.098;2022-11-20T14:45:56;3.50;99.90
9790;DHT22;4934;50.852;8.098;2022-11-20T14:48:31;3.50;99.90
9790;DHT22;4934;50.852;8.098;2022-11-20T14:50:58;3.40;99.90
9790;DHT22;4934;50.852;8.098;2022-11-20T14:53:24;3.50;99.90
9790;DHT22;4934;50.852;8.098;2022-11-20T14:56:01;3.50;99.90
9790;DHT22;4934;50.852;8.098;2022-11-20T14:58:32;3.50;99.90
9790;DHT22;4934;50.852;8.098;2022-11-20T15:01:00;3.50;99.90
9790;DHT22;4934;50.852;8.098;2022-11-20T15:03:39;3.50;99.90
9790;DHT22;4934;50.852;8.098;2022-11-20T15:06:07;3.60;99.90
9790;DHT22;4934;50.852;8.098;2022-11-20T15:08:35;3.50;99.90
9790;DHT22;4934;50.852;8.098;2022-11-20T15:11:02;3.50;99.90
9790;DHT22;4934;50.852;8.098;2022-11-20T15:13:36;3.40;99.90
9790;DHT22;4934;50.852;8.098;2022-11-20T15:16:07;3.40;99.90
9790;DHT22;4934;50.852;8.098;2022-11-20T15:18:39;3.40;99.90
9790;DHT22;4934;50.852;8.098;2022-11-20T15:21:12;3.40;99.90
9790;DHT22;4934;50.852;8.098;2022-11-20T15:23:38;3.40;99.90
9790;DHT22;4934;50.852;8.098;2022-11-20T15:26:11;3.40;99.90
9790;DHT22;4934;50.852;8.098;2022-11-20T15:28:40;3.40;99.90
9790;DHT22;4934;50.852;8.098;2022-11-20T15:31:06;3.50;99.90
9790;DHT22;4934;50.852;8.098;2022-11-20T15:33:34;3.50;99.90
9790;DHT22;4934;50.852;8.098;2022-11-20T15:36:00;3.50;99.90
9790;DHT22;4934;50.852;8.098;2022-11-20T15:38:26;3.40;99.90
9790;DHT22;4934;50.852;8.098;2022-11-20T15:40:51;3.40;99.90
9790;DHT22;4934;50.852;8.098;2022-11-20T15:43:17;3.40;99.90
9790;DHT22;4934;50.852;8.098;2022-11-20T15:45:49;3.40;99.90
9790;DHT22;4934;50.852;8.098;2022-11-20T15:48:24;3.40;99.90
9790;DHT22;4934;50.852;8.098;2022-11-20T15:53:16;3.40;99.90
9790;DHT22;4934;50.852;8.098;2022-11-20T15:55:42;3.40;99.90
9790;DHT22;4934;50.852;8.098;2022-11-20T15:58:08;3.40;99.90
9790;DHT22;4934;50.852;8.098;2022-11-20T16:00:33;3.40;99.90
9790;DHT22;4934;50.852;8.098;2022-11-20T16:02:59;3.40;99.90
9790;DHT22;4934;50.852;8.098;2022-11-20T16:05:28;3.40;99.90
9790;DHT22;4934;50.852;8.098;2022-11-20T16:07:54;3.50;99.90
9790;DHT22;4934;50.852;8.098;2022-11-20T16:10:19;3.50;99.90
9790;DHT22;4934;50.852;8.098;2022-11-20T16:12:45;3.40;99.90
9790;DHT22;4934;50.852;8.098;2022-11-20T16:15:29;3.40;99.90
9790;DHT22;4934;50.852;8.098;2022-11-20T16:18:12;3.40;99.90
9790;DHT22;4934;50.852;8.098;2022-11-20T16:20:38;3.40;99.90
9790;DHT22;4934;50.852;8.098;2022-11-20T16:23:04;3.40;99.90
9790;DHT22;4934;50.852;8.098;2022-11-20T16:25:30;3.50;99.90
9790;DHT22;4934;50.852;8.098;2022-11-20T16:27:55;3.50;99.90
9790;DHT22;4934;50.852;8.098;2022-11-20T16:30:21;3.60;99.90
9790;DHT22;4934;50.852;8.098;2022-11-20T16:32:47;3.60;99.90
9790;DHT22;4934;50.852;8.098;2022-11-20T16:35:13;3.60;99.90
9790;DHT22;4934;50.852;8.098;2022-11-20T16:37:39;3.50;99.90
9790;DHT22;4934;50.852;8.098;2022-11-20T16:40:05;3.50;99.90
9790;DHT22;4934;50.852;8.098;2022-11-20T16:42:33;3.50;99.90
9790;DHT22;4934;50.852;8.098;2022-11-20T16:44:59;3.60;99.90
9790;DHT22;4934;50.852;8.098;2022-11-20T16:47:25;3.60;99.90
9790;DHT22;4934;50.852;8.098;2022-11-20T16:49:50;3.50;99.90
9790;DHT22;4934;50.852;8.098;2022-11-20T16:52:16;3.50;99.90
9790;DHT22;4934;50.852;8.098;2022-11-20T16:54:45;3.50;99.90
9790;DHT22;4934;50.852;8.098;2022-11-20T16:57:10;3.50;99.90
9790;DHT22;4934;50.852;8.098;2022-11-20T16:59:36;3.60;99.90
9790;DHT22;4934;50.852;8.098;2022-11-20T17:02:03;3.70;99.90
9790;DHT22;4934;50.852;8.098;2022-11-20T17:04:28;3.80;99.90
9790;DHT22;4934;50.852;8.098;2022-11-20T17:06:54;3.80;99.90
9790;DHT22;4934;50.852;8.098;2022-11-20T17:09:20;3.90;99.90
9790;DHT22;4934;50.852;8.098;2022-11-20T17:11:47;3.90;99.90
9790;DHT22;4934;50.852;8.098;2022-11-20T17:14:13;4.00;99.90
9790;DHT22;4934;50.852;8.098;2022-11-20T17:16:38;4.00;99.90
9790;DHT22;4934;50.852;8.098;2022-11-20T17:19:04;4.00;99.90
9790;DHT22;4934;50.852;8.098;2022-11-20T17:21:33;4.00;99.90
9790;DHT22;4934;50.852;8.098;2022-11-20T17:24:10;4.00;99.90
9790;DHT22;4934;50.852;8.098;2022-11-20T17:26:37;4.10;99.90
9790;DHT22;4934;50.852;8.098;2022-11-20T17:29:05;4.10;99.90
9790;DHT22;4934;50.852;8.098;2022-11-20T17:31:33;4.10;99.90
9790;DHT22;4934;50.852;8.098;2022-11-20T17:33:59;4.10;99.90
9790;DHT22;4934;50.852;8.098;2022-11-20T17:36:26;4.10;99.90
9790;DHT22;4934;50.852;8.098;2022-11-20T17:38:52;4.10;99.90
9790;DHT22;4934;50.852;8.098;2022-11-20T17:41:20;4.10;99.90